sensor_id;sensor_type;location;lat;lon;timestamp;P1;durP1;ratioP1;P2;durP2;ratioP2
26756;SDS011;23848;49.798;10.228;2023-03-12T00:01:17;10.32;;;6.75;;
26756;SDS011;23848;49.798;10.228;2023-03-12T00:03:46;9.40;;;5.78;;
26756;SDS011;23848;49.798;10.228;2023-03-12T00:06:16;13.55;;;6.60;;
26756;SDS011;23848;49.798;10.228;2023-03-12T00:08:49;9.98;;;6.07;;
26756;SDS011;23848;49.798;10.228;2023-03-12T00:13:50;10.85;;;6.28;;
26756;SDS011;23848;49.798;10.228;2023-03-12T00:16:19;9.88;;;6.13;;
26756;SDS011;23848;49.798;10.228;2023-03-12T00:18:49;11.70;;;6.72;;
26756;SDS011;23848;49.798;10.228;2023-03-12T00:21:19;13.02;;;6.32;;
26756;SDS011;23848;49.798;10.228;2023-03-12T00:23:48;9.27;;;5.47;;
26756;SDS011;23848;49.798;10.228;2023-03-12T00:26:17;9.82;;;6.25;;
26756;SDS011;23848;49.798;10.228;2023-03-12T00:28:46;13.15;;;6.95;;
26756;SDS011;23848;49.798;10.228;2023-03-12T00:31:15;10.27;;;6.00;;
26756;SDS011;23848;49.798;10.228;2023-03-12T00:33:44;9.23;;;5.90;;
26756;SDS011;23848;49.798;10.228;2023-03-12T00:36:14;10.27;;;6.28;;
26756;SDS011;23848;49.798;10.228;2023-03-12T00:38:44;11.45;;;6.50;;
26756;SDS011;23848;49.798;10.228;2023-03-12T00:41:13;11.52;;;7.15;;
26756;SDS011;23848;49.798;10.228;2023-03-12T00:43:41;12.75;;;7.57;;
26756;SDS011;23848;49.798;10.228;2023-03-12T00:46:10;9.82;;;6.22;;
26756;SDS011;23848;49.798;10.228;2023-03-12T00:48:38;14.48;;;8.20;;
26756;SDS011;23848;49.798;10.228;2023-03-12T00:51:11;16.23;;;9.35;;
26756;SDS011;23848;49.798;10.228;2023-03-12T00:53:45;16.00;;;9.63;;
26756;SDS011;23848;49.798;10.228;2023-03-12T00:56:15;16.13;;;9.30;;
26756;SDS011;23848;49.798;10.228;2023-03-12T00:58:44;17.35;;;8.63;;
26756;SDS011;23848;49.798;10.228;2023-03-12T01:01:12;13.05;;;8.23;;
26756;SDS011;23848;49.798;10.228;2023-03-12T01:03:41;12.63;;;7.55;;
26756;SDS011;23848;49.798;10.228;2023-03-12T01:06:09;10.23;;;6.18;;
26756;SDS011;23848;49.798;10.228;2023-03-12T01:08:39;12.23;;;6.47;;
26756;SDS011;23848;49.798;10.228;2023-03-12T01:11:14;9.38;;;5.95;;
26756;SDS011;23848;49.798;10.228;2023-03-12T01:13:42;11.65;;;6.10;;
26756;SDS011;23848;49.798;10.228;2023-03-12T01:16:12;9.43;;;6.15;;
26756;SDS011;23848;49.798;10.228;2023-03-12T01:18:41;10.00;;;5.47;;
26756;SDS011;23848;49.798;10.228;2023-03-12T01:21:09;7.70;;;5.10;;
26756;SDS011;23848;49.798;10.228;2023-03-12T01:23:38;7.70;;;5.07;;
26756;SDS011;23848;49.798;10.228;2023-03-12T01:26:09;10.40;;;5.97;;
26756;SDS011;23848;49.798;10.228;2023-03-12T01:28:41;10.55;;;6.07;;
26756;SDS011;23848;49.798;10.228;2023-03-12T01:31:11;8.85;;;5.68;;
26756;SDS011;23848;49.798;10.228;2023-03-12T01:33:42;9.30;;;5.38;;
26756;SDS011;23848;49.798;10.228;2023-03-12T01:36:14;9.88;;;5.93;;
26756;SDS011;23848;49.798;10.228;2023-03-12T01:41:12;9.30;;;5.65;;
26756;SDS011;23848;49.798;10.228;2023-03-12T01:43:43;9.13;;;5.45;;
26756;SDS011;23848;49.798;10.228;2023-03-12T01:46:20;9.13;;;5.82;;
26756;SDS011;23848;49.798;10.228;2023-03-12T01:49:00;8.88;;;5.00;;
26756;SDS011;23848;49.798;10.228;2023-03-12T01:51:32;12.13;;;5.80;;
26756;SDS011;23848;49.798;10.228;2023-03-12T01:54:04;9.30;;;5.65;;
26756;SDS011;23848;49.798;10.228;2023-03-12T01:56:33;11.55;;;6.45;;
26756;SDS011;23848;49.798;10.228;2023-03-12T01:59:08;6.32;;;4.20;;
26756;SDS011;23848;49.798;10.228;2023-03-12T02:01:38;12.27;;;7.53;;
26756;SDS011;23848;49.798;10.228;2023-03-12T02:04:07;11.77;;;7.55;;
26756;SDS011;23848;49.798;10.228;2023-03-12T02:06:36;12.60;;;7.38;;
26756;SDS011;23848;49.798;10.228;2023-03-12T02:09:06;11.10;;;7.57;;
26756;SDS011;23848;49.798;10.228;2023-03-12T02:11:35;17.65;;;7.95;;
26756;SDS011;23848;49.798;10.228;2023-03-12T02:14:03;14.15;;;7.82;;
26756;SDS011;23848;49.798;10.228;2023-03-12T02:16:34;11.52;;;6.57;;
26756;SDS011;23848;49.798;10.228;2023-03-12T02:19:06;14.30;;;7.03;;
26756;SDS011;23848;49.798;10.228;2023-03-12T02:21:38;12.30;;;7.75;;
26756;SDS011;23848;49.798;10.228;2023-03-12T02:24:11;12.75;;;7.65;;
26756;SDS011;23848;49.798;10.228;2023-03-12T02:26:43;13.20;;;7.35;;
26756;SDS011;23848;49.798;10.228;2023-03-12T02:29:12;12.15;;;7.18;;
26756;SDS011;23848;49.798;10.228;2023-03-12T02:31:42;11.85;;;7.25;;
26756;SDS011;23848;49.798;10.228;2023-03-12T02:34:11;13.30;;;7.68;;
26756;SDS011;23848;49.798;10.228;2023-03-12T02:36:39;12.07;;;6.32;;
26756;SDS011;23848;49.798;10.228;2023-03-12T02:39:08;12.30;;;6.80;;
26756;SDS011;23848;49.798;10.228;2023-03-12T02:41:40;11.30;;;6.68;;
26756;SDS011;23848;49.798;10.228;2023-03-12T02:44:12;13.32;;;5.88;;
26756;SDS011;23848;49.798;10.228;2023-03-12T02:46:43;12.45;;;7.90;;
26756;SDS011;23848;49.798;10.228;2023-03-12T02:49:12;10.20;;;6.50;;
26756;SDS011;23848;49.798;10.228;2023-03-12T02:51:41;10.18;;;6.22;;
26756;SDS011;23848;49.798;10.228;2023-03-12T02:54:10;9.82;;;5.65;;
26756;SDS011;23848;49.798;10.228;2023-03-12T02:56:39;9.20;;;5.93;;
26756;SDS011;23848;49.798;10.228;2023-03-12T02:59:09;10.88;;;6.78;;
26756;SDS011;23848;49.798;10.228;2023-03-12T03:01:41;9.90;;;6.05;;
26756;SDS011;23848;49.798;10.228;2023-03-12T03:04:10;10.15;;;6.55;;
26756;SDS011;23848;49.798;10.228;2023-03-12T03:06:39;8.75;;;5.78;;
26756;SDS011;23848;49.798;10.228;2023-03-12T03:09:09;11.30;;;6.47;;
26756;SDS011;23848;49.798;10.228;2023-03-12T03:11:42;12.32;;;7.20;;
26756;SDS011;23848;49.798;10.228;2023-03-12T03:14:10;11.88;;;7.03;;
26756;SDS011;23848;49.798;10.228;2023-03-12T03:16:41;9.82;;;6.30;;
26756;SDS011;23848;49.798;10.228;2023-03-12T03:19:10;10.50;;;6.45;;
26756;SDS011;23848;49.798;10.228;2023-03-12T03:21:40;10.00;;;6.53;;
26756;SDS011;23848;49.798;10.228;2023-03-12T03:24:09;9.93;;;6.35;;
26756;SDS011;23848;49.798;10.228;2023-03-12T03:26:38;10.82;;;6.75;;
26756;SDS011;23848;49.798;10.228;2023-03-12T03:29:07;10.27;;;7.20;;
26756;SDS011;23848;49.798;10.228;2023-03-12T03:31:35;10.00;;;6.88;;
26756;SDS011;23848;49.798;10.228;2023-03-12T03:34:06;11.57;;;6.93;;
26756;SDS011;23848;49.798;10.228;2023-03-12T03:36:34;8.57;;;6.20;;
26756;SDS011;23848;49.798;10.228;2023-03-12T03:39:03;10.23;;;6.35;;
26756;SDS011;23848;49.798;10.228;2023-03-12T03:41:31;10.40;;;6.50;;
26756;SDS011;23848;49.798;10.228;2023-03-12T03:44:00;11.55;;;6.60;;
26756;SDS011;23848;49.798;10.228;2023-03-12T03:46:30;9.68;;;5.95;;
26756;SDS011;23848;49.798;10.228;2023-03-12T03:49:00;10.05;;;6.32;;
26756;SDS011;23848;49.798;10.228;2023-03-12T03:51:30;10.63;;;6.72;;
26756;SDS011;23848;49.798;10.228;2023-03-12T03:53:59;10.32;;;6.40;;
26756;SDS011;23848;49.798;10.228;2023-03-12T03:56:27;9.63;;;6.75;;
26756;SDS011;23848;49.798;10.228;2023-03-12T03:58:56;11.90;;;6.18;;
26756;SDS011;23848;49.798;10.228;2023-03-12T04:01:25;10.48;;;5.97;;
26756;SDS011;23848;49.798;10.228;2023-03-12T04:03:53;10.13;;;6.38;;
26756;SDS011;23848;49.798;10.228;2023-03-12T04:06:22;13.45;;;6.63;;
26756;SDS011;23848;49.798;10.228;2023-03-12T04:08:52;11.77;;;6.05;;
26756;SDS011;23848;49.798;10.228;2023-03-12T04:11:20;10.57;;;6.32;;
26756;SDS011;23848;49.798;10.228;2023-03-12T04:13:52;9.07;;;6.05;;
26756;SDS011;23848;49.798;10.228;2023-03-12T04:16:20;10.93;;;6.50;;
26756;SDS011;23848;49.798;10.228;2023-03-12T04:18:50;11.27;;;5.60;;
26756;SDS011;23848;49.798;10.228;2023-03-12T04:21:18;9.45;;;6.53;;
26756;SDS011;23848;49.798;10.228;2023-03-12T04:23:46;9.98;;;6.30;;
26756;SDS011;23848;49.798;10.228;2023-03-12T04:26:16;11.77;;;6.80;;
26756;SDS011;23848;49.798;10.228;2023-03-12T04:28:45;10.55;;;6.45;;
26756;SDS011;23848;49.798;10.228;2023-03-12T04:31:14;11.80;;;6.35;;
26756;SDS011;23848;49.798;10.228;2023-03-12T04:33:45;9.77;;;6.45;;
26756;SDS011;23848;49.798;10.228;2023-03-12T04:36:14;8.60;;;5.65;;
26756;SDS011;23848;49.798;10.228;2023-03-12T04:38:44;9.70;;;6.22;;
26756;SDS011;23848;49.798;10.228;2023-03-12T04:41:14;12.65;;;6.30;;
26756;SDS011;23848;49.798;10.228;2023-03-12T04:43:44;10.88;;;6.60;;
26756;SDS011;23848;49.798;10.228;2023-03-12T04:46:13;8.75;;;5.50;;
26756;SDS011;23848;49.798;10.228;2023-03-12T04:48:42;12.98;;;6.22;;
26756;SDS011;23848;49.798;10.228;2023-03-12T04:51:11;12.10;;;7.82;;
26756;SDS011;23848;49.798;10.228;2023-03-12T04:53:39;15.20;;;8.93;;
26756;SDS011;23848;49.798;10.228;2023-03-12T04:56:08;13.52;;;9.05;;
26756;SDS011;23848;49.798;10.228;2023-03-12T04:58:39;13.20;;;8.27;;
26756;SDS011;23848;49.798;10.228;2023-03-12T05:01:11;15.52;;;8.23;;
26756;SDS011;23848;49.798;10.228;2023-03-12T05:03:46;11.60;;;7.38;;
26756;SDS011;23848;49.798;10.228;2023-03-12T05:06:17;11.18;;;6.80;;
26756;SDS011;23848;49.798;10.228;2023-03-12T05:08:46;11.52;;;7.13;;
26756;SDS011;23848;49.798;10.228;2023-03-12T05:11:14;11.23;;;7.40;;
26756;SDS011;23848;49.798;10.228;2023-03-12T05:13:45;12.15;;;6.57;;
26756;SDS011;23848;49.798;10.228;2023-03-12T05:16:14;11.13;;;7.57;;
26756;SDS011;23848;49.798;10.228;2023-03-12T05:18:43;13.68;;;8.55;;
26756;SDS011;23848;49.798;10.228;2023-03-12T05:21:16;15.27;;;9.70;;
26756;SDS011;23848;49.798;10.228;2023-03-12T05:23:45;18.42;;;11.25;;
26756;SDS011;23848;49.798;10.228;2023-03-12T05:26:15;20.13;;;11.98;;
26756;SDS011;23848;49.798;10.228;2023-03-12T05:28:43;20.33;;;12.25;;
26756;SDS011;23848;49.798;10.228;2023-03-12T05:31:12;16.63;;;9.27;;
26756;SDS011;23848;49.798;10.228;2023-03-12T05:33:45;13.38;;;7.45;;
26756;SDS011;23848;49.798;10.228;2023-03-12T05:36:18;11.68;;;7.40;;
26756;SDS011;23848;49.798;10.228;2023-03-12T05:38:49;11.00;;;6.75;;
26756;SDS011;23848;49.798;10.228;2023-03-12T05:41:18;10.65;;;6.22;;
26756;SDS011;23848;49.798;10.228;2023-03-12T05:43:48;10.32;;;6.43;;
26756;SDS011;23848;49.798;10.228;2023-03-12T05:46:17;11.82;;;6.78;;
26756;SDS011;23848;49.798;10.228;2023-03-12T05:48:47;12.13;;;6.97;;
26756;SDS011;23848;49.798;10.228;2023-03-12T05:51:18;11.07;;;7.53;;
26756;SDS011;23848;49.798;10.228;2023-03-12T05:53:53;13.48;;;8.80;;
26756;SDS011;23848;49.798;10.228;2023-03-12T05:56:22;13.95;;;8.85;;
26756;SDS011;23848;49.798;10.228;2023-03-12T05:58:53;14.98;;;9.77;;
26756;SDS011;23848;49.798;10.228;2023-03-12T06:01:25;11.68;;;8.55;;
26756;SDS011;23848;49.798;10.228;2023-03-12T06:03:55;20.65;;;11.98;;
26756;SDS011;23848;49.798;10.228;2023-03-12T06:06:25;16.35;;;10.40;;
26756;SDS011;23848;49.798;10.228;2023-03-12T06:08:59;12.77;;;7.60;;
26756;SDS011;23848;49.798;10.228;2023-03-12T06:11:27;12.50;;;6.93;;
26756;SDS011;23848;49.798;10.228;2023-03-12T06:13:57;9.45;;;6.50;;
26756;SDS011;23848;49.798;10.228;2023-03-12T06:16:26;11.80;;;7.57;;
26756;SDS011;23848;49.798;10.228;2023-03-12T06:18:59;16.45;;;8.80;;
26756;SDS011;23848;49.798;10.228;2023-03-12T06:21:29;13.77;;;8.10;;
26756;SDS011;23848;49.798;10.228;2023-03-12T06:23:58;12.90;;;7.85;;
26756;SDS011;23848;49.798;10.228;2023-03-12T06:26:29;13.73;;;8.52;;
26756;SDS011;23848;49.798;10.228;2023-03-12T06:28:57;13.50;;;7.43;;
26756;SDS011;23848;49.798;10.228;2023-03-12T06:31:26;12.32;;;7.38;;
26756;SDS011;23848;49.798;10.228;2023-03-12T06:33:54;11.20;;;7.22;;
26756;SDS011;23848;49.798;10.228;2023-03-12T06:36:24;10.90;;;7.43;;
26756;SDS011;23848;49.798;10.228;2023-03-12T06:38:52;12.63;;;7.93;;
26756;SDS011;23848;49.798;10.228;2023-03-12T06:41:22;10.48;;;8.13;;
26756;SDS011;23848;49.798;10.228;2023-03-12T06:43:51;13.63;;;7.72;;
26756;SDS011;23848;49.798;10.228;2023-03-12T06:46:19;11.18;;;7.53;;
26756;SDS011;23848;49.798;10.228;2023-03-12T06:48:50;10.88;;;6.78;;
26756;SDS011;23848;49.798;10.228;2023-03-12T06:51:20;12.80;;;7.82;;
26756;SDS011;23848;49.798;10.228;2023-03-12T06:53:50;10.50;;;7.18;;
26756;SDS011;23848;49.798;10.228;2023-03-12T06:56:19;12.55;;;8.27;;
26756;SDS011;23848;49.798;10.228;2023-03-12T06:58:50;14.20;;;7.20;;
26756;SDS011;23848;49.798;10.228;2023-03-12T07:01:24;10.52;;;7.07;;
26756;SDS011;23848;49.798;10.228;2023-03-12T07:04:14;10.85;;;6.65;;
26756;SDS011;23848;49.798;10.228;2023-03-12T07:06:44;14.20;;;9.15;;
26756;SDS011;23848;49.798;10.228;2023-03-12T07:09:28;16.98;;;13.07;;
26756;SDS011;23848;49.798;10.228;2023-03-12T07:12:00;12.50;;;9.13;;
26756;SDS011;23848;49.798;10.228;2023-03-12T07:17:22;19.42;;;12.68;;
26756;SDS011;23848;49.798;10.228;2023-03-12T07:22:50;18.80;;;13.40;;
26756;SDS011;23848;49.798;10.228;2023-03-12T07:25:22;14.25;;;9.52;;
26756;SDS011;23848;49.798;10.228;2023-03-12T07:27:52;14.20;;;10.82;;
26756;SDS011;23848;49.798;10.228;2023-03-12T07:30:36;12.57;;;9.38;;
26756;SDS011;23848;49.798;10.228;2023-03-12T07:33:36;12.15;;;8.50;;
26756;SDS011;23848;49.798;10.228;2023-03-12T07:36:06;13.00;;;9.07;;
26756;SDS011;23848;49.798;10.228;2023-03-12T07:38:51;16.13;;;10.27;;
26756;SDS011;23848;49.798;10.228;2023-03-12T07:41:30;12.73;;;8.07;;
26756;SDS011;23848;49.798;10.228;2023-03-12T07:44:16;14.45;;;8.27;;
26756;SDS011;23848;49.798;10.228;2023-03-12T07:46:50;13.32;;;7.40;;
26756;SDS011;23848;49.798;10.228;2023-03-12T07:49:21;10.90;;;7.10;;
26756;SDS011;23848;49.798;10.228;2023-03-12T07:51:49;11.55;;;7.90;;
26756;SDS011;23848;49.798;10.228;2023-03-12T07:54:21;12.32;;;7.47;;
26756;SDS011;23848;49.798;10.228;2023-03-12T07:56:57;15.27;;;8.70;;
26756;SDS011;23848;49.798;10.228;2023-03-12T07:59:26;10.05;;;7.20;;
26756;SDS011;23848;49.798;10.228;2023-03-12T08:01:54;15.25;;;7.82;;
26756;SDS011;23848;49.798;10.228;2023-03-12T08:04:23;10.50;;;6.72;;
26756;SDS011;23848;49.798;10.228;2023-03-12T08:06:52;11.00;;;7.15;;
26756;SDS011;23848;49.798;10.228;2023-03-12T08:09:21;10.90;;;7.32;;
26756;SDS011;23848;49.798;10.228;2023-03-12T08:11:49;11.95;;;8.25;;
26756;SDS011;23848;49.798;10.228;2023-03-12T08:14:20;16.42;;;9.13;;
26756;SDS011;23848;49.798;10.228;2023-03-12T08:16:54;11.90;;;7.80;;
26756;SDS011;23848;49.798;10.228;2023-03-12T08:19:23;10.73;;;7.40;;
26756;SDS011;23848;49.798;10.228;2023-03-12T08:21:56;10.35;;;6.53;;
26756;SDS011;23848;49.798;10.228;2023-03-12T08:24:24;14.43;;;6.38;;
26756;SDS011;23848;49.798;10.228;2023-03-12T08:26:53;10.63;;;7.00;;
26756;SDS011;23848;49.798;10.228;2023-03-12T08:29:22;11.00;;;6.97;;
26756;SDS011;23848;49.798;10.228;2023-03-12T08:31:51;11.63;;;7.22;;
26756;SDS011;23848;49.798;10.228;2023-03-12T08:34:30;11.10;;;7.57;;
26756;SDS011;23848;49.798;10.228;2023-03-12T08:36:58;12.23;;;7.38;;
26756;SDS011;23848;49.798;10.228;2023-03-12T08:39:28;10.23;;;7.70;;
26756;SDS011;23848;49.798;10.228;2023-03-12T08:42:07;13.50;;;7.90;;
26756;SDS011;23848;49.798;10.228;2023-03-12T08:47:34;12.65;;;7.60;;
26756;SDS011;23848;49.798;10.228;2023-03-12T08:50:08;12.63;;;7.68;;
26756;SDS011;23848;49.798;10.228;2023-03-12T08:52:45;9.25;;;7.05;;
26756;SDS011;23848;49.798;10.228;2023-03-12T08:55:35;11.55;;;7.75;;
26756;SDS011;23848;49.798;10.228;2023-03-12T08:58:09;11.70;;;7.70;;
26756;SDS011;23848;49.798;10.228;2023-03-12T09:00:41;10.75;;;7.45;;
26756;SDS011;23848;49.798;10.228;2023-03-12T09:03:14;11.23;;;7.53;;
26756;SDS011;23848;49.798;10.228;2023-03-12T09:05:48;9.57;;;7.13;;
26756;SDS011;23848;49.798;10.228;2023-03-12T09:08:18;9.98;;;6.50;;
26756;SDS011;23848;49.798;10.228;2023-03-12T09:10:49;9.57;;;6.30;;
26756;SDS011;23848;49.798;10.228;2023-03-12T09:13:20;8.25;;;6.22;;
26756;SDS011;23848;49.798;10.228;2023-03-12T09:16:15;14.77;;;8.70;;
26756;SDS011;23848;49.798;10.228;2023-03-12T09:18:50;11.52;;;6.35;;
26756;SDS011;23848;49.798;10.228;2023-03-12T09:21:21;32.55;;;15.75;;
26756;SDS011;23848;49.798;10.228;2023-03-12T09:23:56;15.50;;;8.23;;
26756;SDS011;23848;49.798;10.228;2023-03-12T09:26:30;7.18;;;4.47;;
26756;SDS011;23848;49.798;10.228;2023-03-12T09:29:03;16.90;;;8.98;;
26756;SDS011;23848;49.798;10.228;2023-03-12T09:31:40;10.50;;;5.18;;
26756;SDS011;23848;49.798;10.228;2023-03-12T09:34:11;6.93;;;4.65;;
26756;SDS011;23848;49.798;10.228;2023-03-12T09:36:48;10.70;;;5.60;;
26756;SDS011;23848;49.798;10.228;2023-03-12T09:39:29;9.00;;;4.90;;
26756;SDS011;23848;49.798;10.228;2023-03-12T09:41:58;7.40;;;5.00;;
26756;SDS011;23848;49.798;10.228;2023-03-12T09:44:33;7.68;;;4.60;;
26756;SDS011;23848;49.798;10.228;2023-03-12T09:47:09;8.13;;;4.73;;
26756;SDS011;23848;49.798;10.228;2023-03-12T09:49:47;6.25;;;4.00;;
26756;SDS011;23848;49.798;10.228;2023-03-12T09:52:23;8.38;;;5.25;;
26756;SDS011;23848;49.798;10.228;2023-03-12T09:55:23;9.32;;;5.95;;
26756;SDS011;23848;49.798;10.228;2023-03-12T10:11:07;6.13;;;4.10;;
26756;SDS011;23848;49.798;10.228;2023-03-12T10:13:54;6.30;;;3.42;;
26756;SDS011;23848;49.798;10.228;2023-03-12T10:16:48;7.47;;;4.80;;
26756;SDS011;23848;49.798;10.228;2023-03-12T10:19:29;6.47;;;3.63;;
26756;SDS011;23848;49.798;10.228;2023-03-12T10:22:13;5.18;;;3.40;;
26756;SDS011;23848;49.798;10.228;2023-03-12T10:24:50;6.32;;;3.42;;
26756;SDS011;23848;49.798;10.228;2023-03-12T10:27:27;6.45;;;4.10;;
26756;SDS011;23848;49.798;10.228;2023-03-12T10:29:56;6.28;;;3.90;;
26756;SDS011;23848;49.798;10.228;2023-03-12T10:32:32;6.88;;;3.88;;
26756;SDS011;23848;49.798;10.228;2023-03-12T10:37:55;7.43;;;4.07;;
26756;SDS011;23848;49.798;10.228;2023-03-12T10:43:25;8.25;;;4.07;;
26756;SDS011;23848;49.798;10.228;2023-03-12T10:49:21;6.95;;;3.53;;
26756;SDS011;23848;49.798;10.228;2023-03-12T10:51:56;5.38;;;3.70;;
26756;SDS011;23848;49.798;10.228;2023-03-12T10:54:29;6.38;;;4.15;;
26756;SDS011;23848;49.798;10.228;2023-03-12T10:57:00;6.50;;;3.92;;
26756;SDS011;23848;49.798;10.228;2023-03-12T10:59:38;4.85;;;3.22;;
26756;SDS011;23848;49.798;10.228;2023-03-12T11:05:19;7.13;;;4.47;;
26756;SDS011;23848;49.798;10.228;2023-03-12T11:07:51;7.03;;;3.63;;
26756;SDS011;23848;49.798;10.228;2023-03-12T11:10:47;6.20;;;3.78;;
26756;SDS011;23848;49.798;10.228;2023-03-12T11:13:42;7.50;;;4.43;;
26756;SDS011;23848;49.798;10.228;2023-03-12T11:16:23;8.23;;;4.20;;
26756;SDS011;23848;49.798;10.228;2023-03-12T11:19:00;5.82;;;3.55;;
26756;SDS011;23848;49.798;10.228;2023-03-12T11:21:33;6.90;;;4.20;;
26756;SDS011;23848;49.798;10.228;2023-03-12T11:24:06;8.63;;;4.22;;
26756;SDS011;23848;49.798;10.228;2023-03-12T11:26:41;8.45;;;4.97;;
26756;SDS011;23848;49.798;10.228;2023-03-12T11:29:33;6.43;;;4.38;;
26756;SDS011;23848;49.798;10.228;2023-03-12T11:35:30;8.55;;;4.53;;
26756;SDS011;23848;49.798;10.228;2023-03-12T11:38:49;9.38;;;5.13;;
26756;SDS011;23848;49.798;10.228;2023-03-12T11:41:50;9.70;;;4.57;;
26756;SDS011;23848;49.798;10.228;2023-03-12T11:45:05;9.15;;;4.55;;
26756;SDS011;23848;49.798;10.228;2023-03-12T11:54:07;8.10;;;4.65;;
26756;SDS011;23848;49.798;10.228;2023-03-12T12:00:10;7.85;;;3.92;;
26756;SDS011;23848;49.798;10.228;2023-03-12T12:03:45;7.75;;;4.43;;
26756;SDS011;23848;49.798;10.228;2023-03-12T12:06:28;6.95;;;4.85;;
26756;SDS011;23848;49.798;10.228;2023-03-12T12:09:34;7.03;;;4.50;;
26756;SDS011;23848;49.798;10.228;2023-03-12T12:12:32;6.35;;;4.50;;
26756;SDS011;23848;49.798;10.228;2023-03-12T12:15:43;8.23;;;4.13;;
26756;SDS011;23848;49.798;10.228;2023-03-12T12:19:03;7.40;;;4.47;;
26756;SDS011;23848;49.798;10.228;2023-03-12T12:21:47;6.93;;;4.15;;
26756;SDS011;23848;49.798;10.228;2023-03-12T12:24:39;6.05;;;4.35;;
26756;SDS011;23848;49.798;10.228;2023-03-12T12:29:59;5.53;;;3.50;;
26756;SDS011;23848;49.798;10.228;2023-03-12T12:32:44;9.00;;;3.78;;
26756;SDS011;23848;49.798;10.228;2023-03-12T12:35:41;6.20;;;3.42;;
26756;SDS011;23848;49.798;10.228;2023-03-12T12:38:12;5.70;;;3.45;;
26756;SDS011;23848;49.798;10.228;2023-03-12T12:40:57;5.45;;;3.58;;
26756;SDS011;23848;49.798;10.228;2023-03-12T12:43:36;5.72;;;3.90;;
26756;SDS011;23848;49.798;10.228;2023-03-12T12:46:13;8.10;;;3.50;;
26756;SDS011;23848;49.798;10.228;2023-03-12T12:48:46;6.00;;;4.03;;
26756;SDS011;23848;49.798;10.228;2023-03-12T12:51:22;6.78;;;3.80;;
26756;SDS011;23848;49.798;10.228;2023-03-12T12:53:54;7.22;;;3.95;;
26756;SDS011;23848;49.798;10.228;2023-03-12T12:56:33;5.82;;;3.90;;
26756;SDS011;23848;49.798;10.228;2023-03-12T12:59:23;5.30;;;3.40;;
26756;SDS011;23848;49.798;10.228;2023-03-12T13:01:54;5.93;;;3.67;;
26756;SDS011;23848;49.798;10.228;2023-03-12T13:04:26;5.95;;;3.90;;
26756;SDS011;23848;49.798;10.228;2023-03-12T13:09:53;4.70;;;3.35;;
26756;SDS011;23848;49.798;10.228;2023-03-12T13:15:35;4.68;;;3.28;;
26756;SDS011;23848;49.798;10.228;2023-03-12T13:18:07;5.18;;;3.40;;
26756;SDS011;23848;49.798;10.228;2023-03-12T13:23:57;6.07;;;3.67;;
26756;SDS011;23848;49.798;10.228;2023-03-12T13:26:39;6.35;;;3.72;;
26756;SDS011;23848;49.798;10.228;2023-03-12T13:29:19;5.32;;;3.63;;
26756;SDS011;23848;49.798;10.228;2023-03-12T13:31:50;5.53;;;3.90;;
26756;SDS011;23848;49.798;10.228;2023-03-12T13:34:32;6.03;;;4.28;;
26756;SDS011;23848;49.798;10.228;2023-03-12T13:37:19;6.35;;;4.05;;
26756;SDS011;23848;49.798;10.228;2023-03-12T13:39:54;6.97;;;3.95;;
26756;SDS011;23848;49.798;10.228;2023-03-12T13:42:39;6.60;;;4.00;;
26756;SDS011;23848;49.798;10.228;2023-03-12T13:45:21;6.55;;;4.07;;
26756;SDS011;23848;49.798;10.228;2023-03-12T13:53:54;6.75;;;4.28;;
26756;SDS011;23848;49.798;10.228;2023-03-12T13:56:28;6.97;;;4.13;;
26756;SDS011;23848;49.798;10.228;2023-03-12T13:59:01;6.28;;;4.25;;
26756;SDS011;23848;49.798;10.228;2023-03-12T14:01:39;6.32;;;4.60;;
26756;SDS011;23848;49.798;10.228;2023-03-12T14:04:18;6.82;;;4.88;;
26756;SDS011;23848;49.798;10.228;2023-03-12T14:10:34;7.03;;;4.75;;
26756;SDS011;23848;49.798;10.228;2023-03-12T14:13:35;10.98;;;5.53;;
26756;SDS011;23848;49.798;10.228;2023-03-12T14:16:44;8.45;;;5.28;;
26756;SDS011;23848;49.798;10.228;2023-03-12T14:20:04;9.50;;;5.20;;
26756;SDS011;23848;49.798;10.228;2023-03-12T14:23:44;6.55;;;3.92;;
26756;SDS011;23848;49.798;10.228;2023-03-12T14:27:10;7.00;;;4.63;;
26756;SDS011;23848;49.798;10.228;2023-03-12T14:33:08;7.32;;;4.30;;
26756;SDS011;23848;49.798;10.228;2023-03-12T14:37:51;10.43;;;4.35;;
26756;SDS011;23848;49.798;10.228;2023-03-12T14:51:15;7.47;;;4.18;;
26756;SDS011;23848;49.798;10.228;2023-03-12T14:55:52;9.65;;;4.65;;
26756;SDS011;23848;49.798;10.228;2023-03-12T15:00:56;7.43;;;4.90;;
26756;SDS011;23848;49.798;10.228;2023-03-12T15:10:52;9.77;;;5.65;;
26756;SDS011;23848;49.798;10.228;2023-03-12T15:16:58;8.43;;;5.40;;
26756;SDS011;23848;49.798;10.228;2023-03-12T15:23:27;8.25;;;5.15;;
26756;SDS011;23848;49.798;10.228;2023-03-12T15:43:57;8.80;;;5.00;;
26756;SDS011;23848;49.798;10.228;2023-03-12T15:51:39;10.95;;;6.43;;
26756;SDS011;23848;49.798;10.228;2023-03-12T16:41:30;14.77;;;8.32;;
26756;SDS011;23848;49.798;10.228;2023-03-12T16:48:16;10.65;;;6.78;;
26756;SDS011;23848;49.798;10.228;2023-03-12T16:51:17;9.18;;;5.97;;
26756;SDS011;23848;49.798;10.228;2023-03-12T16:54:25;12.43;;;6.50;;
26756;SDS011;23848;49.798;10.228;2023-03-12T17:11:28;12.80;;;7.82;;
26756;SDS011;23848;49.798;10.228;2023-03-12T17:15:39;10.52;;;6.90;;
26756;SDS011;23848;49.798;10.228;2023-03-12T17:20:52;10.32;;;5.40;;
26756;SDS011;23848;49.798;10.228;2023-03-12T17:24:31;9.60;;;5.10;;
26756;SDS011;23848;49.798;10.228;2023-03-12T18:45:40;16.42;;;7.53;;
26756;SDS011;23848;49.798;10.228;2023-03-12T18:52:26;8.13;;;4.30;;
26756;SDS011;23848;49.798;10.228;2023-03-12T18:55:14;8.93;;;4.18;;
26756;SDS011;23848;49.798;10.228;2023-03-12T18:58:22;11.27;;;5.00;;
26756;SDS011;23848;49.798;10.228;2023-03-12T19:49:16;10.90;;;3.25;;
26756;SDS011;23848;49.798;10.228;2023-03-12T19:53:00;8.88;;;3.10;;
26756;SDS011;23848;49.798;10.228;2023-03-12T20:05:21;8.27;;;2.63;;
26756;SDS011;23848;49.798;10.228;2023-03-12T20:07:57;10.80;;;2.47;;
26756;SDS011;23848;49.798;10.228;2023-03-12T20:10:30;8.30;;;2.30;;
26756;SDS011;23848;49.798;10.228;2023-03-12T20:13:01;13.13;;;2.90;;
26756;SDS011;23848;49.798;10.228;2023-03-12T20:15:30;10.98;;;2.88;;
26756;SDS011;23848;49.798;10.228;2023-03-12T20:18:09;7.65;;;3.03;;
26756;SDS011;23848;49.798;10.228;2023-03-12T20:20:52;7.75;;;2.88;;
26756;SDS011;23848;49.798;10.228;2023-03-12T20:23:22;9.02;;;2.60;;
26756;SDS011;23848;49.798;10.228;2023-03-12T20:25:54;7.25;;;2.78;;
26756;SDS011;23848;49.798;10.228;2023-03-12T20:28:23;7.88;;;2.60;;
26756;SDS011;23848;49.798;10.228;2023-03-12T20:30:51;9.65;;;3.05;;
26756;SDS011;23848;49.798;10.228;2023-03-12T20:33:20;6.10;;;2.45;;
26756;SDS011;23848;49.798;10.228;2023-03-12T20:35:48;9.85;;;2.72;;
26756;SDS011;23848;49.798;10.228;2023-03-12T20:38:18;7.53;;;2.38;;
26756;SDS011;23848;49.798;10.228;2023-03-12T20:40:46;6.72;;;2.40;;
26756;SDS011;23848;49.798;10.228;2023-03-12T20:43:15;12.45;;;2.95;;
26756;SDS011;23848;49.798;10.228;2023-03-12T20:45:47;9.63;;;2.58;;
26756;SDS011;23848;49.798;10.228;2023-03-12T20:48:17;8.63;;;2.53;;
26756;SDS011;23848;49.798;10.228;2023-03-12T20:50:48;7.35;;;2.78;;
26756;SDS011;23848;49.798;10.228;2023-03-12T20:53:20;8.02;;;2.95;;
26756;SDS011;23848;49.798;10.228;2023-03-12T20:56:09;15.32;;;2.92;;